Moelfre, United Kingdom
Current Conditions -  °F | °C
As of 1:50 AM on Wednesday 22 Oct 2014 (Local Time) from EGOV Reporting Station
Haze Haze  
Wind Chill: 52°   Ceiling: 5000
Heat Index: 52°   Visibility: 5mi
Dew Point: 45°   Wind: 21mph
Humidity: 76%   Direction: 280°W
Pressure: 30.24"   Gusts: NA
Location:  53.34°N, 4.25°W
Report Text: EGOV 220050Z AUTO 28018KT 8000 HZ FEW030/// BKN050/// 11/07 Q1024
Loading
Personal Weather Stations






























Interactive Weather Map
Tropical Storm Tracking
New forecast layout! Learn more

10-Day Weather Forecast

Advertisements
Track Severe Weather on mobile